Urban, Kentucky
Current Conditions -  °F | °C
As of 11:53 PM on Friday 19 Dec 2014 (Local Time) from KLOZ Reporting Station
Clear Clear  
Wind Chill: 24°   Ceiling: Unl
Heat Index: 29°   Visibility: 10mi
Dew Point: 22°   Wind: 5mph
Humidity: 75%   Direction: 20°NNE
Pressure: 30.2"   Gusts: NA
Location:  37.1101°N, 83.7537°W
Report Text: KLOZ 200453Z AUTO 02004KT 10SM CLR M02/M06 A3020 RMK AO2 SLP237 T10171056 400501017
Loading
Personal Weather Stations






























Interactive Weather Map New forecast layout! Learn more

10-Day Weather Forecast

Advertisements
Track Severe Weather on mobile